sensor_id;sensor_type;location;lat;lon;timestamp;P1;durP1;ratioP1;P2;durP2;ratioP2
64865;SDS011;64698;42.002;21.410;2022-10-31T00:00:02;28.67;;;16.40;;
64865;SDS011;64698;42.002;21.410;2022-10-31T00:02:28;23.70;;;13.63;;
64865;SDS011;64698;42.002;21.410;2022-10-31T00:04:53;32.13;;;17.25;;
64865;SDS011;64698;42.002;21.410;2022-10-31T00:07:19;25.83;;;14.32;;
64865;SDS011;64698;42.002;21.410;2022-10-31T00:09:44;26.85;;;14.88;;
64865;SDS011;64698;42.002;21.410;2022-10-31T00:12:09;25.38;;;14.15;;
64865;SDS011;64698;42.002;21.410;2022-10-31T00:14:35;21.40;;;13.15;;
64865;SDS011;64698;42.002;21.410;2022-10-31T00:17:00;24.77;;;14.87;;
64865;SDS011;64698;42.002;21.410;2022-10-31T00:19:25;23.27;;;13.07;;
64865;SDS011;64698;42.002;21.410;2022-10-31T00:21:51;24.27;;;13.77;;
64865;SDS011;64698;42.002;21.410;2022-10-31T00:24:17;25.48;;;13.55;;
64865;SDS011;64698;42.002;21.410;2022-10-31T00:26:42;21.65;;;13.15;;
64865;SDS011;64698;42.002;21.410;2022-10-31T00:29:07;13.95;;;7.43;;
64865;SDS011;64698;42.002;21.410;2022-10-31T00:31:33;10.40;;;6.15;;
64865;SDS011;64698;42.002;21.410;2022-10-31T00:33:58;8.95;;;5.28;;
64865;SDS011;64698;42.002;21.410;2022-10-31T00:36:23;13.10;;;6.63;;
64865;SDS011;64698;42.002;21.410;2022-10-31T00:38:49;11.25;;;5.15;;
64865;SDS011;64698;42.002;21.410;2022-10-31T00:41:15;15.10;;;6.63;;
64865;SDS011;64698;42.002;21.410;2022-10-31T00:43:41;9.63;;;4.70;;
64865;SDS011;64698;42.002;21.410;2022-10-31T00:46:07;15.60;;;8.80;;
64865;SDS011;64698;42.002;21.410;2022-10-31T00:48:32;16.40;;;7.57;;
64865;SDS011;64698;42.002;21.410;2022-10-31T00:50:58;15.15;;;7.93;;
64865;SDS011;64698;42.002;21.410;2022-10-31T00:53:23;13.75;;;8.65;;
64865;SDS011;64698;42.002;21.410;2022-10-31T00:55:48;10.13;;;6.50;;
64865;SDS011;64698;42.002;21.410;2022-10-31T00:58:14;12.13;;;7.45;;
64865;SDS011;64698;42.002;21.410;2022-10-31T01:00:39;14.43;;;7.57;;
64865;SDS011;64698;42.002;21.410;2022-10-31T01:03:05;14.93;;;6.97;;
64865;SDS011;64698;42.002;21.410;2022-10-31T01:05:30;19.70;;;11.33;;
64865;SDS011;64698;42.002;21.410;2022-10-31T01:07:55;17.95;;;10.93;;
64865;SDS011;64698;42.002;21.410;2022-10-31T01:10:21;19.67;;;11.13;;
64865;SDS011;64698;42.002;21.410;2022-10-31T01:12:47;19.42;;;11.35;;
64865;SDS011;64698;42.002;21.410;2022-10-31T01:15:13;27.90;;;14.10;;
64865;SDS011;64698;42.002;21.410;2022-10-31T01:17:39;19.42;;;12.27;;
64865;SDS011;64698;42.002;21.410;2022-10-31T01:20:05;23.00;;;12.75;;
64865;SDS011;64698;42.002;21.410;2022-10-31T01:22:30;23.70;;;11.70;;
64865;SDS011;64698;42.002;21.410;2022-10-31T01:24:56;18.60;;;10.55;;
64865;SDS011;64698;42.002;21.410;2022-10-31T01:27:21;16.25;;;9.23;;
64865;SDS011;64698;42.002;21.410;2022-10-31T01:29:46;19.17;;;9.77;;
64865;SDS011;64698;42.002;21.410;2022-10-31T01:32:12;20.60;;;11.13;;
64865;SDS011;64698;42.002;21.410;2022-10-31T01:34:37;21.47;;;11.40;;
64865;SDS011;64698;42.002;21.410;2022-10-31T01:37:02;18.77;;;9.77;;
64865;SDS011;64698;42.002;21.410;2022-10-31T01:39:28;20.33;;;10.48;;
64865;SDS011;64698;42.002;21.410;2022-10-31T01:41:53;18.25;;;9.68;;
64865;SDS011;64698;42.002;21.410;2022-10-31T01:51:51;15.82;;;9.68;;
64865;SDS011;64698;42.002;21.410;2022-10-31T01:54:19;17.88;;;9.70;;
64865;SDS011;64698;42.002;21.410;2022-10-31T01:56:47;25.70;;;12.93;;
64865;SDS011;64698;42.002;21.410;2022-10-31T01:59:14;18.65;;;11.07;;
64865;SDS011;64698;42.002;21.410;2022-10-31T02:01:41;20.60;;;11.75;;
64865;SDS011;64698;42.002;21.410;2022-10-31T02:04:06;24.55;;;12.32;;
64865;SDS011;64698;42.002;21.410;2022-10-31T02:08:58;17.52;;;8.85;;
64865;SDS011;64698;42.002;21.410;2022-10-31T02:11:23;16.13;;;7.78;;
64865;SDS011;64698;42.002;21.410;2022-10-31T02:13:49;16.25;;;8.75;;
64865;SDS011;64698;42.002;21.410;2022-10-31T02:16:14;15.13;;;8.23;;
64865;SDS011;64698;42.002;21.410;2022-10-31T02:18:40;14.93;;;7.25;;
64865;SDS011;64698;42.002;21.410;2022-10-31T02:23:47;15.48;;;8.13;;
64865;SDS011;64698;42.002;21.410;2022-10-31T02:37:06;14.75;;;7.30;;
64865;SDS011;64698;42.002;21.410;2022-10-31T02:39:47;14.65;;;8.27;;
64865;SDS011;64698;42.002;21.410;2022-10-31T02:42:17;12.60;;;7.85;;
64865;SDS011;64698;42.002;21.410;2022-10-31T02:44:57;14.20;;;7.40;;
64865;SDS011;64698;42.002;21.410;2022-10-31T02:47:26;11.35;;;6.93;;
64865;SDS011;64698;42.002;21.410;2022-10-31T02:49:59;11.27;;;6.20;;
64865;SDS011;64698;42.002;21.410;2022-10-31T02:52:29;13.18;;;7.57;;
64865;SDS011;64698;42.002;21.410;2022-10-31T02:54:55;14.90;;;8.18;;
64865;SDS011;64698;42.002;21.410;2022-10-31T02:57:42;10.48;;;6.53;;
64865;SDS011;64698;42.002;21.410;2022-10-31T03:00:07;16.42;;;9.38;;
64865;SDS011;64698;42.002;21.410;2022-10-31T03:07:51;15.13;;;7.82;;
64865;SDS011;64698;42.002;21.410;2022-10-31T03:15:26;19.97;;;11.00;;
64865;SDS011;64698;42.002;21.410;2022-10-31T03:20:22;19.10;;;10.35;;
64865;SDS011;64698;42.002;21.410;2022-10-31T03:22:49;13.90;;;8.60;;
64865;SDS011;64698;42.002;21.410;2022-10-31T03:25:15;16.42;;;7.82;;
64865;SDS011;64698;42.002;21.410;2022-10-31T03:27:41;13.85;;;7.97;;
64865;SDS011;64698;42.002;21.410;2022-10-31T03:30:07;14.93;;;8.02;;
64865;SDS011;64698;42.002;21.410;2022-10-31T03:32:38;19.60;;;10.50;;
64865;SDS011;64698;42.002;21.410;2022-10-31T03:35:04;18.15;;;11.43;;
64865;SDS011;64698;42.002;21.410;2022-10-31T03:37:32;18.38;;;11.27;;
64865;SDS011;64698;42.002;21.410;2022-10-31T03:39:58;22.60;;;12.95;;
64865;SDS011;64698;42.002;21.410;2022-10-31T03:42:25;17.85;;;10.02;;
64865;SDS011;64698;42.002;21.410;2022-10-31T03:44:53;13.75;;;9.02;;
64865;SDS011;64698;42.002;21.410;2022-10-31T03:47:21;18.33;;;9.60;;
64865;SDS011;64698;42.002;21.410;2022-10-31T03:49:46;13.52;;;7.70;;
64865;SDS011;64698;42.002;21.410;2022-10-31T03:52:19;15.05;;;7.72;;
64865;SDS011;64698;42.002;21.410;2022-10-31T03:54:48;14.43;;;7.53;;
64865;SDS011;64698;42.002;21.410;2022-10-31T03:59:53;15.50;;;8.52;;
64865;SDS011;64698;42.002;21.410;2022-10-31T04:02:21;13.52;;;7.93;;
64865;SDS011;64698;42.002;21.410;2022-10-31T04:04:47;15.43;;;7.40;;
64865;SDS011;64698;42.002;21.410;2022-10-31T04:07:13;14.95;;;8.55;;
64865;SDS011;64698;42.002;21.410;2022-10-31T04:09:41;15.25;;;8.40;;
64865;SDS011;64698;42.002;21.410;2022-10-31T04:12:08;13.57;;;7.13;;
64865;SDS011;64698;42.002;21.410;2022-10-31T04:14:36;16.23;;;7.90;;
64865;SDS011;64698;42.002;21.410;2022-10-31T04:17:03;12.13;;;7.72;;
64865;SDS011;64698;42.002;21.410;2022-10-31T04:19:31;15.02;;;7.47;;
64865;SDS011;64698;42.002;21.410;2022-10-31T04:21:57;16.60;;;9.13;;
64865;SDS011;64698;42.002;21.410;2022-10-31T04:24:22;14.63;;;8.88;;
64865;SDS011;64698;42.002;21.410;2022-10-31T04:26:48;12.60;;;7.40;;
64865;SDS011;64698;42.002;21.410;2022-10-31T04:29:13;14.32;;;7.88;;
64865;SDS011;64698;42.002;21.410;2022-10-31T04:31:38;13.90;;;7.87;;
64865;SDS011;64698;42.002;21.410;2022-10-31T04:34:04;13.75;;;7.55;;
64865;SDS011;64698;42.002;21.410;2022-10-31T04:36:29;12.77;;;7.70;;
64865;SDS011;64698;42.002;21.410;2022-10-31T04:38:54;15.23;;;7.40;;
64865;SDS011;64698;42.002;21.410;2022-10-31T04:41:20;12.48;;;7.78;;
64865;SDS011;64698;42.002;21.410;2022-10-31T04:43:45;15.03;;;7.63;;
64865;SDS011;64698;42.002;21.410;2022-10-31T04:46:10;14.97;;;8.03;;
64865;SDS011;64698;42.002;21.410;2022-10-31T04:48:36;16.63;;;8.27;;
64865;SDS011;64698;42.002;21.410;2022-10-31T04:51:01;18.67;;;8.73;;
64865;SDS011;64698;42.002;21.410;2022-10-31T04:53:27;16.13;;;8.35;;
64865;SDS011;64698;42.002;21.410;2022-10-31T04:55:52;15.48;;;8.10;;
64865;SDS011;64698;42.002;21.410;2022-10-31T04:58:18;14.95;;;7.55;;
64865;SDS011;64698;42.002;21.410;2022-10-31T05:00:43;14.95;;;8.32;;
64865;SDS011;64698;42.002;21.410;2022-10-31T05:03:08;15.43;;;8.15;;
64865;SDS011;64698;42.002;21.410;2022-10-31T05:05:34;13.80;;;8.27;;
64865;SDS011;64698;42.002;21.410;2022-10-31T05:07:59;14.40;;;7.40;;
64865;SDS011;64698;42.002;21.410;2022-10-31T05:10:25;14.05;;;7.95;;
64865;SDS011;64698;42.002;21.410;2022-10-31T05:12:52;16.38;;;8.05;;
64865;SDS011;64698;42.002;21.410;2022-10-31T05:15:18;12.05;;;7.50;;
64865;SDS011;64698;42.002;21.410;2022-10-31T05:17:44;15.95;;;8.05;;
64865;SDS011;64698;42.002;21.410;2022-10-31T05:20:10;15.98;;;8.57;;
64865;SDS011;64698;42.002;21.410;2022-10-31T05:22:36;15.65;;;9.13;;
64865;SDS011;64698;42.002;21.410;2022-10-31T05:25:01;13.60;;;8.05;;
64865;SDS011;64698;42.002;21.410;2022-10-31T05:27:26;15.63;;;8.88;;
64865;SDS011;64698;42.002;21.410;2022-10-31T05:29:52;15.77;;;7.80;;
64865;SDS011;64698;42.002;21.410;2022-10-31T05:32:17;15.45;;;8.68;;
64865;SDS011;64698;42.002;21.410;2022-10-31T05:34:42;14.47;;;8.13;;
64865;SDS011;64698;42.002;21.410;2022-10-31T05:37:08;16.47;;;8.90;;
64865;SDS011;64698;42.002;21.410;2022-10-31T05:39:33;15.10;;;8.70;;
64865;SDS011;64698;42.002;21.410;2022-10-31T05:41:58;15.07;;;7.57;;
64865;SDS011;64698;42.002;21.410;2022-10-31T05:44:24;14.87;;;7.60;;
64865;SDS011;64698;42.002;21.410;2022-10-31T05:46:49;17.23;;;7.80;;
64865;SDS011;64698;42.002;21.410;2022-10-31T05:49:14;15.55;;;7.90;;
64865;SDS011;64698;42.002;21.410;2022-10-31T05:51:40;14.60;;;7.90;;
64865;SDS011;64698;42.002;21.410;2022-10-31T05:54:05;15.25;;;8.68;;
64865;SDS011;64698;42.002;21.410;2022-10-31T05:56:30;15.13;;;8.40;;
64865;SDS011;64698;42.002;21.410;2022-10-31T05:58:56;18.73;;;8.77;;
64865;SDS011;64698;42.002;21.410;2022-10-31T06:01:21;16.10;;;8.20;;
64865;SDS011;64698;42.002;21.410;2022-10-31T06:03:46;15.03;;;8.53;;
64865;SDS011;64698;42.002;21.410;2022-10-31T06:06:12;18.77;;;9.50;;
64865;SDS011;64698;42.002;21.410;2022-10-31T06:08:37;18.30;;;9.77;;
64865;SDS011;64698;42.002;21.410;2022-10-31T06:11:03;22.25;;;10.23;;
64865;SDS011;64698;42.002;21.410;2022-10-31T06:13:28;21.08;;;10.57;;
64865;SDS011;64698;42.002;21.410;2022-10-31T06:15:53;20.53;;;10.07;;
64865;SDS011;64698;42.002;21.410;2022-10-31T06:18:19;18.37;;;11.07;;
64865;SDS011;64698;42.002;21.410;2022-10-31T06:20:44;19.80;;;11.60;;
64865;SDS011;64698;42.002;21.410;2022-10-31T06:23:09;21.43;;;12.83;;
64865;SDS011;64698;42.002;21.410;2022-10-31T06:25:35;17.75;;;10.73;;
64865;SDS011;64698;42.002;21.410;2022-10-31T06:28:00;21.17;;;12.73;;
64865;SDS011;64698;42.002;21.410;2022-10-31T06:30:26;20.83;;;12.73;;
64865;SDS011;64698;42.002;21.410;2022-10-31T06:32:51;21.92;;;13.55;;
64865;SDS011;64698;42.002;21.410;2022-10-31T06:35:17;24.23;;;12.60;;
64865;SDS011;64698;42.002;21.410;2022-10-31T06:37:42;25.15;;;13.05;;
64865;SDS011;64698;42.002;21.410;2022-10-31T06:40:08;23.95;;;12.35;;
64865;SDS011;64698;42.002;21.410;2022-10-31T06:42:33;24.85;;;12.20;;
64865;SDS011;64698;42.002;21.410;2022-10-31T06:44:59;33.70;;;18.42;;
64865;SDS011;64698;42.002;21.410;2022-10-31T06:47:24;27.92;;;15.98;;
64865;SDS011;64698;42.002;21.410;2022-10-31T06:49:49;24.50;;;13.00;;
64865;SDS011;64698;42.002;21.410;2022-10-31T06:52:15;21.70;;;12.77;;
64865;SDS011;64698;42.002;21.410;2022-10-31T06:54:40;20.50;;;12.23;;
64865;SDS011;64698;42.002;21.410;2022-10-31T06:57:06;22.23;;;12.30;;
64865;SDS011;64698;42.002;21.410;2022-10-31T06:59:31;20.43;;;12.27;;
64865;SDS011;64698;42.002;21.410;2022-10-31T07:01:57;21.05;;;12.85;;
64865;SDS011;64698;42.002;21.410;2022-10-31T07:04:22;20.85;;;11.90;;
64865;SDS011;64698;42.002;21.410;2022-10-31T07:06:50;19.67;;;12.25;;
64865;SDS011;64698;42.002;21.410;2022-10-31T07:09:15;21.75;;;11.75;;
64865;SDS011;64698;42.002;21.410;2022-10-31T07:11:41;20.70;;;11.13;;
64865;SDS011;64698;42.002;21.410;2022-10-31T07:14:06;17.35;;;11.05;;
64865;SDS011;64698;42.002;21.410;2022-10-31T07:16:31;21.40;;;13.05;;
64865;SDS011;64698;42.002;21.410;2022-10-31T07:18:57;18.73;;;11.55;;
64865;SDS011;64698;42.002;21.410;2022-10-31T07:21:22;20.40;;;11.90;;
64865;SDS011;64698;42.002;21.410;2022-10-31T07:23:48;18.40;;;11.77;;
64865;SDS011;64698;42.002;21.410;2022-10-31T07:26:13;23.08;;;11.63;;
64865;SDS011;64698;42.002;21.410;2022-10-31T07:28:39;20.77;;;11.30;;
64865;SDS011;64698;42.002;21.410;2022-10-31T07:31:04;19.77;;;11.88;;
64865;SDS011;64698;42.002;21.410;2022-10-31T07:33:30;17.80;;;11.57;;
64865;SDS011;64698;42.002;21.410;2022-10-31T07:35:55;20.60;;;12.13;;
64865;SDS011;64698;42.002;21.410;2022-10-31T07:38:20;22.58;;;12.18;;
64865;SDS011;64698;42.002;21.410;2022-10-31T07:40:49;23.80;;;12.85;;
64865;SDS011;64698;42.002;21.410;2022-10-31T07:43:15;21.55;;;12.48;;
64865;SDS011;64698;42.002;21.410;2022-10-31T07:45:40;21.65;;;12.63;;
64865;SDS011;64698;42.002;21.410;2022-10-31T07:48:05;22.90;;;12.88;;
64865;SDS011;64698;42.002;21.410;2022-10-31T07:50:31;20.13;;;12.43;;
64865;SDS011;64698;42.002;21.410;2022-10-31T07:53:02;23.45;;;12.00;;
64865;SDS011;64698;42.002;21.410;2022-10-31T07:55:28;18.00;;;11.52;;
64865;SDS011;64698;42.002;21.410;2022-10-31T07:58:08;21.80;;;11.75;;
64865;SDS011;64698;42.002;21.410;2022-10-31T08:00:34;19.38;;;11.50;;
64865;SDS011;64698;42.002;21.410;2022-10-31T08:03:01;20.45;;;11.57;;
64865;SDS011;64698;42.002;21.410;2022-10-31T08:05:27;16.35;;;10.55;;
64865;SDS011;64698;42.002;21.410;2022-10-31T08:07:52;23.02;;;10.77;;
64865;SDS011;64698;42.002;21.410;2022-10-31T08:10:17;18.30;;;10.45;;
64865;SDS011;64698;42.002;21.410;2022-10-31T08:12:43;15.55;;;11.32;;
64865;SDS011;64698;42.002;21.410;2022-10-31T08:15:08;24.17;;;11.33;;
64865;SDS011;64698;42.002;21.410;2022-10-31T08:17:36;15.38;;;10.38;;
64865;SDS011;64698;42.002;21.410;2022-10-31T08:20:03;17.25;;;11.52;;
64865;SDS011;64698;42.002;21.410;2022-10-31T08:22:28;22.45;;;11.77;;
64865;SDS011;64698;42.002;21.410;2022-10-31T08:24:53;18.23;;;10.85;;
64865;SDS011;64698;42.002;21.410;2022-10-31T08:27:19;20.47;;;11.13;;
64865;SDS011;64698;42.002;21.410;2022-10-31T08:29:44;17.33;;;10.53;;
64865;SDS011;64698;42.002;21.410;2022-10-31T08:32:09;16.37;;;10.57;;
64865;SDS011;64698;42.002;21.410;2022-10-31T08:34:35;17.57;;;10.90;;
64865;SDS011;64698;42.002;21.410;2022-10-31T08:37:00;18.25;;;11.23;;
64865;SDS011;64698;42.002;21.410;2022-10-31T08:39:25;19.67;;;10.38;;
64865;SDS011;64698;42.002;21.410;2022-10-31T08:41:51;16.80;;;9.83;;
64865;SDS011;64698;42.002;21.410;2022-10-31T08:44:16;16.85;;;9.43;;
64865;SDS011;64698;42.002;21.410;2022-10-31T08:46:42;18.92;;;10.15;;
64865;SDS011;64698;42.002;21.410;2022-10-31T08:49:07;18.60;;;9.82;;
64865;SDS011;64698;42.002;21.410;2022-10-31T08:51:32;21.08;;;10.82;;
64865;SDS011;64698;42.002;21.410;2022-10-31T08:53:58;18.43;;;9.97;;
64865;SDS011;64698;42.002;21.410;2022-10-31T08:56:23;15.53;;;9.60;;
64865;SDS011;64698;42.002;21.410;2022-10-31T08:58:49;17.23;;;8.45;;
64865;SDS011;64698;42.002;21.410;2022-10-31T09:01:14;14.50;;;8.38;;
64865;SDS011;64698;42.002;21.410;2022-10-31T09:03:39;18.23;;;8.43;;
64865;SDS011;64698;42.002;21.410;2022-10-31T09:06:05;13.73;;;6.67;;
64865;SDS011;64698;42.002;21.410;2022-10-31T09:08:34;16.13;;;8.57;;
64865;SDS011;64698;42.002;21.410;2022-10-31T09:11:00;15.75;;;7.75;;
64865;SDS011;64698;42.002;21.410;2022-10-31T09:13:26;13.90;;;8.10;;
64865;SDS011;64698;42.002;21.410;2022-10-31T09:15:51;14.73;;;7.68;;
64865;SDS011;64698;42.002;21.410;2022-10-31T09:18:17;17.33;;;7.60;;
64865;SDS011;64698;42.002;21.410;2022-10-31T09:20:43;14.15;;;8.07;;
64865;SDS011;64698;42.002;21.410;2022-10-31T09:25:41;15.02;;;8.20;;
64865;SDS011;64698;42.002;21.410;2022-10-31T09:28:07;14.07;;;7.50;;
64865;SDS011;64698;42.002;21.410;2022-10-31T09:32:59;12.93;;;6.93;;
64865;SDS011;64698;42.002;21.410;2022-10-31T09:35:25;11.20;;;6.78;;
64865;SDS011;64698;42.002;21.410;2022-10-31T09:37:57;13.98;;;7.30;;
64865;SDS011;64698;42.002;21.410;2022-10-31T09:40:43;14.20;;;7.28;;
64865;SDS011;64698;42.002;21.410;2022-10-31T09:43:15;14.77;;;7.97;;
64865;SDS011;64698;42.002;21.410;2022-10-31T09:51:16;15.48;;;7.60;;
64865;SDS011;64698;42.002;21.410;2022-10-31T09:53:44;14.35;;;7.35;;
64865;SDS011;64698;42.002;21.410;2022-10-31T09:56:15;14.30;;;7.22;;
64865;SDS011;64698;42.002;21.410;2022-10-31T09:58:45;14.13;;;7.63;;
64865;SDS011;64698;42.002;21.410;2022-10-31T10:01:17;14.55;;;7.88;;
64865;SDS011;64698;42.002;21.410;2022-10-31T10:03:46;16.08;;;7.75;;
64865;SDS011;64698;42.002;21.410;2022-10-31T10:06:16;17.95;;;8.50;;
64865;SDS011;64698;42.002;21.410;2022-10-31T10:08:43;13.15;;;8.20;;
64865;SDS011;64698;42.002;21.410;2022-10-31T10:26:21;14.68;;;7.95;;
64865;SDS011;64698;42.002;21.410;2022-10-31T10:31:14;10.93;;;7.73;;
64865;SDS011;64698;42.002;21.410;2022-10-31T10:33:41;20.48;;;8.68;;
64865;SDS011;64698;42.002;21.410;2022-10-31T10:36:21;16.15;;;6.85;;
64865;SDS011;64698;42.002;21.410;2022-10-31T10:41:16;15.83;;;8.50;;
64865;SDS011;64698;42.002;21.410;2022-10-31T10:43:42;12.25;;;7.03;;
64865;SDS011;64698;42.002;21.410;2022-10-31T10:48:57;17.25;;;7.22;;
64865;SDS011;64698;42.002;21.410;2022-10-31T10:51:32;11.98;;;5.88;;
64865;SDS011;64698;42.002;21.410;2022-10-31T10:59:09;9.43;;;3.67;;
64865;SDS011;64698;42.002;21.410;2022-10-31T11:01:35;10.43;;;4.07;;
64865;SDS011;64698;42.002;21.410;2022-10-31T11:04:02;6.25;;;3.40;;
64865;SDS011;64698;42.002;21.410;2022-10-31T11:06:27;10.77;;;4.78;;
64865;SDS011;64698;42.002;21.410;2022-10-31T11:08:53;9.90;;;4.25;;
64865;SDS011;64698;42.002;21.410;2022-10-31T11:11:25;9.05;;;4.90;;
64865;SDS011;64698;42.002;21.410;2022-10-31T11:14:03;8.88;;;3.70;;
64865;SDS011;64698;42.002;21.410;2022-10-31T11:21:52;8.43;;;3.78;;
64865;SDS011;64698;42.002;21.410;2022-10-31T11:24:19;9.15;;;3.20;;
64865;SDS011;64698;42.002;21.410;2022-10-31T11:29:43;9.37;;;3.10;;
64865;SDS011;64698;42.002;21.410;2022-10-31T11:32:01;8.20;;;4.28;;
64865;SDS011;64698;42.002;21.410;2022-10-31T11:34:29;7.40;;;3.67;;
64865;SDS011;64698;42.002;21.410;2022-10-31T11:36:55;10.93;;;3.92;;
64865;SDS011;64698;42.002;21.410;2022-10-31T11:39:23;9.98;;;3.78;;
64865;SDS011;64698;42.002;21.410;2022-10-31T11:41:49;9.75;;;3.30;;
64865;SDS011;64698;42.002;21.410;2022-10-31T11:44:25;9.75;;;3.20;;
64865;SDS011;64698;42.002;21.410;2022-10-31T11:46:52;8.63;;;4.20;;
64865;SDS011;64698;42.002;21.410;2022-10-31T11:51:48;7.47;;;2.72;;
64865;SDS011;64698;42.002;21.410;2022-10-31T11:54:21;7.63;;;3.47;;
64865;SDS011;64698;42.002;21.410;2022-10-31T11:56:47;7.35;;;2.28;;
64865;SDS011;64698;42.002;21.410;2022-10-31T11:59:34;6.53;;;2.78;;
64865;SDS011;64698;42.002;21.410;2022-10-31T12:01:59;8.73;;;2.90;;
64865;SDS011;64698;42.002;21.410;2022-10-31T12:06:56;8.02;;;2.40;;
64865;SDS011;64698;42.002;21.410;2022-10-31T12:09:27;9.38;;;4.03;;
64865;SDS011;64698;42.002;21.410;2022-10-31T12:27:36;7.35;;;2.30;;
64865;SDS011;64698;42.002;21.410;2022-10-31T12:43:11;6.40;;;2.08;;
64865;SDS011;64698;42.002;21.410;2022-10-31T12:45:45;9.50;;;3.58;;
64865;SDS011;64698;42.002;21.410;2022-10-31T12:53:41;7.68;;;2.53;;
64865;SDS011;64698;42.002;21.410;2022-10-31T12:58:40;8.23;;;3.53;;
64865;SDS011;64698;42.002;21.410;2022-10-31T13:03:48;6.95;;;2.97;;
64865;SDS011;64698;42.002;21.410;2022-10-31T13:06:22;5.82;;;2.53;;
64865;SDS011;64698;42.002;21.410;2022-10-31T13:08:53;5.38;;;2.10;;
64865;SDS011;64698;42.002;21.410;2022-10-31T13:11:24;6.82;;;2.60;;
64865;SDS011;64698;42.002;21.410;2022-10-31T13:14:05;7.95;;;3.90;;
64865;SDS011;64698;42.002;21.410;2022-10-31T13:16:36;5.82;;;2.30;;
64865;SDS011;64698;42.002;21.410;2022-10-31T13:19:08;6.72;;;2.47;;
64865;SDS011;64698;42.002;21.410;2022-10-31T13:21:49;10.20;;;2.72;;
64865;SDS011;64698;42.002;21.410;2022-10-31T13:24:18;12.30;;;2.83;;
64865;SDS011;64698;42.002;21.410;2022-10-31T13:31:39;6.73;;;3.43;;
64865;SDS011;64698;42.002;21.410;2022-10-31T13:34:04;6.80;;;1.88;;
64865;SDS011;64698;42.002;21.410;2022-10-31T13:39:14;9.93;;;2.50;;
64865;SDS011;64698;42.002;21.410;2022-10-31T13:41:49;5.93;;;2.90;;
64865;SDS011;64698;42.002;21.410;2022-10-31T13:46:44;5.43;;;2.20;;
64865;SDS011;64698;42.002;21.410;2022-10-31T13:52:15;7.78;;;2.67;;
64865;SDS011;64698;42.002;21.410;2022-10-31T13:59:56;9.18;;;3.58;;
64865;SDS011;64698;42.002;21.410;2022-10-31T14:02:26;5.40;;;2.65;;
64865;SDS011;64698;42.002;21.410;2022-10-31T14:04:55;6.50;;;3.05;;
64865;SDS011;64698;42.002;21.410;2022-10-31T14:07:22;7.78;;;3.20;;
64865;SDS011;64698;42.002;21.410;2022-10-31T14:12:33;8.70;;;2.88;;
64865;SDS011;64698;42.002;21.410;2022-10-31T14:22:37;7.72;;;3.30;;
64865;SDS011;64698;42.002;21.410;2022-10-31T14:27:48;12.30;;;3.40;;
64865;SDS011;64698;42.002;21.410;2022-10-31T14:30:14;9.85;;;3.15;;
64865;SDS011;64698;42.002;21.410;2022-10-31T14:32:40;7.68;;;2.65;;
64865;SDS011;64698;42.002;21.410;2022-10-31T14:35:08;12.57;;;2.95;;
64865;SDS011;64698;42.002;21.410;2022-10-31T14:45:36;10.00;;;2.90;;
64865;SDS011;64698;42.002;21.410;2022-10-31T14:48:14;6.90;;;3.08;;
64865;SDS011;64698;42.002;21.410;2022-10-31T14:50:54;9.93;;;3.85;;
64865;SDS011;64698;42.002;21.410;2022-10-31T14:55:50;13.32;;;3.80;;
64865;SDS011;64698;42.002;21.410;2022-10-31T14:58:19;9.73;;;3.10;;
64865;SDS011;64698;42.002;21.410;2022-10-31T15:00:45;9.13;;;4.13;;
64865;SDS011;64698;42.002;21.410;2022-10-31T15:03:19;12.57;;;3.95;;
64865;SDS011;64698;42.002;21.410;2022-10-31T15:05:51;9.15;;;3.95;;
64865;SDS011;64698;42.002;21.410;2022-10-31T15:11:12;10.38;;;3.90;;
64865;SDS011;64698;42.002;21.410;2022-10-31T15:13:42;8.50;;;4.32;;
64865;SDS011;64698;42.002;21.410;2022-10-31T15:16:08;8.73;;;3.58;;
64865;SDS011;64698;42.002;21.410;2022-10-31T15:18:34;7.03;;;2.65;;
64865;SDS011;64698;42.002;21.410;2022-10-31T15:21:00;6.77;;;2.80;;
64865;SDS011;64698;42.002;21.410;2022-10-31T15:23:26;11.73;;;3.63;;
64865;SDS011;64698;42.002;21.410;2022-10-31T15:26:01;9.82;;;3.38;;
64865;SDS011;64698;42.002;21.410;2022-10-31T15:28:28;10.82;;;3.17;;
64865;SDS011;64698;42.002;21.410;2022-10-31T15:30:54;8.23;;;3.03;;
64865;SDS011;64698;42.002;21.410;2022-10-31T15:33:24;13.63;;;5.40;;
64865;SDS011;64698;42.002;21.410;2022-10-31T15:35:59;9.90;;;4.90;;
64865;SDS011;64698;42.002;21.410;2022-10-31T15:38:25;9.25;;;3.63;;
64865;SDS011;64698;42.002;21.410;2022-10-31T15:40:52;12.18;;;3.75;;
64865;SDS011;64698;42.002;21.410;2022-10-31T15:43:19;14.95;;;3.95;;
64865;SDS011;64698;42.002;21.410;2022-10-31T15:45:45;10.57;;;4.22;;
64865;SDS011;64698;42.002;21.410;2022-10-31T15:48:17;15.25;;;8.52;;
64865;SDS011;64698;42.002;21.410;2022-10-31T15:50:55;13.27;;;5.43;;
64865;SDS011;64698;42.002;21.410;2022-10-31T15:53:24;13.80;;;4.78;;
64865;SDS011;64698;42.002;21.410;2022-10-31T15:55:54;9.68;;;4.35;;
64865;SDS011;64698;42.002;21.410;2022-10-31T15:58:20;12.73;;;7.63;;
64865;SDS011;64698;42.002;21.410;2022-10-31T16:00:56;12.25;;;5.35;;
64865;SDS011;64698;42.002;21.410;2022-10-31T16:03:26;11.30;;;4.97;;
64865;SDS011;64698;42.002;21.410;2022-10-31T16:05:53;9.02;;;4.40;;
64865;SDS011;64698;42.002;21.410;2022-10-31T16:10:53;18.17;;;9.63;;
64865;SDS011;64698;42.002;21.410;2022-10-31T16:13:20;16.35;;;7.47;;
64865;SDS011;64698;42.002;21.410;2022-10-31T16:15:49;12.38;;;5.82;;
64865;SDS011;64698;42.002;21.410;2022-10-31T16:18:16;12.18;;;5.57;;
64865;SDS011;64698;42.002;21.410;2022-10-31T16:20:47;11.75;;;5.53;;
64865;SDS011;64698;42.002;21.410;2022-10-31T16:23:16;13.77;;;6.20;;
64865;SDS011;64698;42.002;21.410;2022-10-31T16:25:42;13.95;;;7.43;;
64865;SDS011;64698;42.002;21.410;2022-10-31T16:28:21;11.88;;;5.65;;
64865;SDS011;64698;42.002;21.410;2022-10-31T16:33:26;14.57;;;6.97;;
64865;SDS011;64698;42.002;21.410;2022-10-31T16:35:52;11.18;;;6.28;;
64865;SDS011;64698;42.002;21.410;2022-10-31T16:38:18;10.55;;;4.57;;
64865;SDS011;64698;42.002;21.410;2022-10-31T16:40:43;11.82;;;5.75;;
64865;SDS011;64698;42.002;21.410;2022-10-31T16:43:13;9.90;;;5.55;;
64865;SDS011;64698;42.002;21.410;2022-10-31T16:45:42;13.55;;;5.88;;
64865;SDS011;64698;42.002;21.410;2022-10-31T16:48:18;10.57;;;4.70;;
64865;SDS011;64698;42.002;21.410;2022-10-31T16:50:45;10.05;;;3.92;;
64865;SDS011;64698;42.002;21.410;2022-10-31T16:53:11;7.93;;;3.92;;
64865;SDS011;64698;42.002;21.410;2022-10-31T16:58:09;11.35;;;5.60;;
64865;SDS011;64698;42.002;21.410;2022-10-31T17:00:37;12.00;;;5.43;;
64865;SDS011;64698;42.002;21.410;2022-10-31T17:03:02;14.48;;;3.97;;
64865;SDS011;64698;42.002;21.410;2022-10-31T17:05:29;9.70;;;4.18;;
64865;SDS011;64698;42.002;21.410;2022-10-31T17:07:57;7.57;;;3.78;;
64865;SDS011;64698;42.002;21.410;2022-10-31T17:10:23;12.68;;;4.57;;
64865;SDS011;64698;42.002;21.410;2022-10-31T17:12:48;7.85;;;4.65;;
64865;SDS011;64698;42.002;21.410;2022-10-31T17:15:15;13.90;;;5.20;;
64865;SDS011;64698;42.002;21.410;2022-10-31T17:17:41;10.60;;;4.80;;
64865;SDS011;64698;42.002;21.410;2022-10-31T17:20:11;12.90;;;4.67;;
64865;SDS011;64698;42.002;21.410;2022-10-31T17:22:41;11.93;;;5.28;;